Time;durP1;ratioP1;P1;durP2;ratioP2;P2;SDS_P1;SDS_P2;PMS_P1;PMS_P2;Temp;Humidity;BMP_temperature;BMP_pressure;BME280_temperature;BME280_humidity;BME280_pressure;Samples;Min_cycle;Max_cycle;Signal;HPM_P1;HPM_P2
2023/07/11 03:17:25;;;;;;;11.25;5.82;;;21.90;92.50;;;;;;6132790;22;89580;-64
2023/07/11 03:19:50;;;;;;;12.93;5.80;;;21.90;92.50;;;;;;6156155;22;88054;-64
2023/07/11 03:22:17;;;;;;;12.60;5.70;;;21.90;92.10;;;;;;6155533;22;87379;-66
2023/07/11 03:24:43;;;;;;;14.75;5.05;;;21.90;92.00;;;;;;6144331;22;88777;-65
2023/07/11 03:27:08;;;;;;;9.35;4.40;;;21.90;91.90;;;;;;6153468;22;90398;-66
2023/07/11 03:29:34;;;;;;;11.32;5.32;;;21.80;91.90;;;;;;6155884;22;88587;-66
2023/07/11 03:32:02;;;;;;;12.30;5.03;;;21.80;92.30;;;;;;6156700;22;87358;-64
2023/07/11 03:34:28;;;;;;;11.88;5.25;;;21.80;92.50;;;;;;6154662;22;87319;-64
2023/07/11 03:36:53;;;;;;;10.77;5.07;;;21.70;92.80;;;;;;6153947;22;87563;-64
2023/07/11 03:39:19;;;;;;;13.57;4.90;;;21.70;93.00;;;;;;6155058;22;88202;-64
2023/07/11 03:41:45;;;;;;;11.15;5.78;;;21.70;93.20;;;;;;6153697;22;87724;-64
2023/07/11 03:44:10;;;;;;;9.77;4.18;;;21.70;93.30;;;;;;6156492;22;86448;-65
2023/07/11 03:46:36;;;;;;;8.93;4.13;;;21.90;92.60;;;;;;6155500;22;87644;-65
2023/07/11 03:49:02;;;;;;;10.85;4.10;;;22.10;91.20;;;;;;6153600;22;87307;-64
2023/07/11 03:51:28;;;;;;;12.10;4.05;;;22.30;90.40;;;;;;6154595;22;88383;-65
2023/07/11 03:53:54;;;;;;;8.77;4.80;;;22.20;90.30;;;;;;6155245;22;87386;-64
2023/07/11 03:56:20;;;;;;;9.85;4.43;;;22.10;90.60;;;;;;6154482;22;88749;-65
2023/07/11 03:58:45;;;;;;;10.80;4.47;;;22.10;91.00;;;;;;6154180;22;88457;-64
2023/07/11 04:01:11;;;;;;;10.10;5.57;;;22.10;90.70;;;;;;6155899;22;87663;-64
2023/07/11 04:03:37;;;;;;;6.60;3.60;;;22.20;90.60;;;;;;6156366;22;87883;-65
2023/07/11 04:06:02;;;;;;;9.13;3.60;;;22.40;90.40;;;;;;6154034;22;88232;-65
2023/07/11 04:08:28;;;;;;;9.80;4.82;;;23.00;88.60;;;;;;6151478;22;87847;-64
2023/07/11 04:10:58;;;;;;;11.55;4.78;;;23.20;86.70;;;;;;6151975;22;87425;-64
2023/07/11 04:13:24;;;;;;;12.43;4.47;;;23.30;86.40;;;;;;6153636;22;87490;-64
2023/07/11 04:15:50;;;;;;;9.25;4.40;;;23.40;86.40;;;;;;6153472;22;89504;-66
2023/07/11 04:18:15;;;;;;;10.38;4.22;;;23.60;85.20;;;;;;6151776;22;88734;-66
2023/07/11 04:20:41;;;;;;;11.23;4.18;;;23.90;84.30;;;;;;6153173;22;86950;-66
2023/07/11 04:23:07;;;;;;;11.90;4.22;;;24.10;83.20;;;;;;6156140;22;87338;-66
2023/07/11 04:25:32;;;;;;;10.15;4.43;;;24.20;83.00;;;;;;6154952;22;88221;-66
2023/07/11 04:27:58;;;;;;;12.50;5.53;;;24.30;82.40;;;;;;6148046;22;87947;-67
2023/07/11 04:30:23;;;;;;;19.02;4.53;;;24.40;82.00;;;;;;6145019;22;87657;-67
2023/07/11 04:32:51;;;;;;;9.88;4.70;;;24.80;81.40;;;;;;6145171;22;86893;-66
2023/07/11 04:35:17;;;;;;;10.93;4.55;;;25.00;80.20;;;;;;6162962;22;88174;-67
2023/07/11 04:37:43;;;;;;;10.35;4.80;;;25.20;79.00;;;;;;6179721;22;88749;-64
2023/07/11 04:40:11;;;;;;;8.52;4.07;;;25.30;78.30;;;;;;6180302;22;88727;-65
2023/07/11 04:42:37;;;;;;;12.02;4.63;;;25.70;77.90;;;;;;6184022;22;87459;-65
2023/07/11 04:45:04;;;;;;;11.95;5.13;;;26.00;76.60;;;;;;6181214;22;88355;-66
2023/07/11 04:47:30;;;;;;;10.50;4.80;;;26.30;75.60;;;;;;6181188;22;88050;-65
2023/07/11 04:49:56;;;;;;;12.98;5.40;;;26.50;75.10;;;;;;6178951;22;87426;-65
2023/07/11 04:52:21;;;;;;;10.70;5.13;;;26.80;74.40;;;;;;6180836;22;87404;-71
2023/07/11 04:54:47;;;;;;;32.97;7.53;;;27.10;73.90;;;;;;6184064;22;87899;-68
2023/07/11 04:57:13;;;;;;;12.35;4.97;;;27.50;72.90;;;;;;6186870;22;88477;-69
2023/07/11 04:59:38;;;;;;;11.02;5.15;;;28.00;70.90;;;;;;6185113;22;86992;-71
2023/07/11 05:02:04;;;;;;;8.13;4.68;;;28.30;69.40;;;;;;6185127;22;87526;-67
2023/07/11 05:04:30;;;;;;;13.40;5.13;;;28.50;68.70;;;;;;6184949;22;89177;-68
2023/07/11 05:06:55;;;;;;;8.50;4.80;;;28.80;67.40;;;;;;6187541;22;88231;-68
2023/07/11 05:09:21;;;;;;;15.52;5.25;;;29.10;67.40;;;;;;6189030;22;87528;-68
2023/07/11 05:11:47;;;;;;;12.73;5.55;;;29.60;65.90;;;;;;6186214;22;87496;-67
2023/07/11 05:14:13;;;;;;;16.42;5.57;;;29.90;64.20;;;;;;6188240;22;88014;-68
2023/07/11 05:16:39;;;;;;;8.50;4.30;;;29.90;64.40;;;;;;6187581;22;88270;-70
2023/07/11 05:19:04;;;;;;;14.85;5.07;;;30.30;63.10;;;;;;6187519;22;87234;-69
2023/07/11 05:21:30;;;;;;;14.43;4.97;;;30.60;62.80;;;;;;6188866;22;86495;-69
2023/07/11 05:23:56;;;;;;;12.00;5.13;;;31.10;61.30;;;;;;6186848;22;87806;-68
2023/07/11 05:26:22;;;;;;;9.43;4.50;;;31.40;60.10;;;;;;6184840;22;87770;-68
2023/07/11 05:28:48;;;;;;;11.05;6.38;;;31.70;59.40;;;;;;6187564;22;88199;-68
2023/07/11 05:31:14;;;;;;;10.50;4.20;;;32.00;57.90;;;;;;6188712;22;87029;-69
2023/07/11 05:33:39;;;;;;;12.68;4.20;;;32.40;57.00;;;;;;6187469;22;88071;-68
2023/07/11 05:36:18;;;;;;;8.55;4.10;;;32.80;56.40;;;;;;6188095;22;87695;-68
2023/07/11 05:38:43;;;;;;;11.45;4.55;;;33.30;55.30;;;;;;6187314;22;87521;-68
2023/07/11 05:41:09;;;;;;;8.32;4.63;;;33.80;54.90;;;;;;6187987;22;87499;-70
2023/07/11 05:43:35;;;;;;;9.45;4.00;;;34.10;53.80;;;;;;6188586;22;87384;-68
2023/07/11 05:46:00;;;;;;;25.98;5.75;;;34.10;53.10;;;;;;6188575;22;87193;-69
2023/07/11 05:48:26;;;;;;;15.05;4.55;;;34.20;53.30;;;;;;6188270;22;87199;-68
2023/07/11 05:50:58;;;;;;;9.32;4.57;;;34.40;52.60;;;;;;6188359;22;87338;-69
2023/07/11 05:53:24;;;;;;;10.10;4.55;;;34.40;52.60;;;;;;6186486;22;88567;-68
2023/07/11 05:55:50;;;;;;;15.00;5.43;;;34.20;52.60;;;;;;6186749;22;88217;-68
2023/07/11 05:58:15;;;;;;;11.88;4.95;;;34.20;52.50;;;;;;6188153;22;87029;-69
2023/07/11 06:00:42;;;;;;;15.00;4.88;;;34.00;52.90;;;;;;6187853;22;87285;-69
2023/07/11 06:03:07;;;;;;;13.85;4.40;;;34.40;52.80;;;;;;6187968;22;87745;-71
2023/07/11 06:05:34;;;;;;;9.23;4.32;;;34.50;52.90;;;;;;6187727;22;87838;-70
2023/07/11 06:08:00;;;;;;;8.93;4.82;;;35.00;52.40;;;;;;6187408;22;87528;-68
2023/07/11 06:10:26;;;;;;;6.72;4.30;;;35.70;52.30;;;;;;6186637;22;86563;-68
2023/07/11 06:12:51;;;;;;;8.52;4.95;;;36.20;50.80;;;;;;6187382;22;88103;-69
2023/07/11 06:15:17;;;;;;;11.82;5.20;;;36.90;50.50;;;;;;6184991;22;87389;-69
2023/07/11 06:17:43;;;;;;;11.75;5.57;;;37.70;49.90;;;;;;6186050;22;88022;-71
2023/07/11 06:20:09;;;;;;;10.77;4.90;;;38.20;49.20;;;;;;6189032;22;87285;-68
2023/07/11 06:22:35;;;;;;;9.40;5.53;;;38.10;48.30;;;;;;6187642;22;88575;-69
2023/07/11 06:25:02;;;;;;;9.45;4.80;;;38.60;47.80;;;;;;6187074;22;87778;-68
2023/07/11 06:27:29;;;;;;;12.07;5.20;;;39.10;47.00;;;;;;6187856;22;87366;-69
2023/07/11 06:29:54;;;;;;;8.13;5.75;;;39.50;46.30;;;;;;6188486;22;87231;-70
2023/07/11 06:32:20;;;;;;;12.45;6.05;;;39.70;45.80;;;;;;6188780;22;87633;-69
2023/07/11 06:34:46;;;;;;;13.27;6.22;;;40.20;45.70;;;;;;6188351;22;87222;-69
2023/07/11 06:37:12;;;;;;;9.20;6.03;;;40.40;46.00;;;;;;6187953;22;87493;-68
2023/07/11 06:39:38;;;;;;;13.23;6.40;;;40.70;45.40;;;;;;6188237;22;87251;-68
2023/07/11 06:42:04;;;;;;;9.52;6.32;;;40.70;45.30;;;;;;6158968;22;90146;-68
2023/07/11 06:44:30;;;;;;;8.02;5.53;;;40.70;46.10;;;;;;6184638;22;88897;-67
2023/07/11 06:46:56;;;;;;;7.22;5.50;;;41.30;44.90;;;;;;6185745;22;87451;-68
2023/07/11 06:49:22;;;;;;;9.75;6.68;;;41.90;44.40;;;;;;6185979;22;87360;-69
2023/07/11 06:51:49;;;;;;;10.13;5.70;;;42.30;44.60;;;;;;6185331;22;88312;-68
2023/07/11 06:54:16;;;;;;;11.85;8.05;;;42.70;43.30;;;;;;6185753;22;88126;-70
2023/07/11 06:56:41;;;;;;;9.85;5.50;;;42.90;43.70;;;;;;6185653;22;87888;-70
2023/07/11 06:59:08;;;;;;;12.07;8.43;;;43.40;43.10;;;;;;6187791;22;86860;-69
2023/07/11 07:01:34;;;;;;;10.00;6.50;;;43.70;42.10;;;;;;6186894;22;87223;-68
2023/07/11 07:04:00;;;;;;;11.55;6.50;;;43.70;41.80;;;;;;6187701;22;87859;-68
2023/07/11 07:06:26;;;;;;;9.80;5.97;;;44.20;41.40;;;;;;6187127;22;88001;-69
2023/07/11 07:08:52;;;;;;;11.77;7.18;;;44.60;42.00;;;;;;6188101;22;87398;-69
2023/07/11 07:11:18;;;;;;;11.90;7.82;;;44.40;41.40;;;;;;6187859;22;87491;-69
2023/07/11 07:13:44;;;;;;;14.30;8.63;;;44.50;40.90;;;;;;6187829;22;88012;-68
2023/07/11 07:16:10;;;;;;;9.68;7.25;;;45.10;40.10;;;;;;6186997;22;87257;-69
2023/07/11 07:18:39;;;;;;;10.45;7.82;;;45.40;40.10;;;;;;6188026;22;87464;-69
2023/07/11 07:21:05;;;;;;;9.18;7.03;;;45.70;40.50;;;;;;6187736;22;88081;-69
2023/07/11 07:23:34;;;;;;;10.90;8.48;;;46.20;39.70;;;;;;6187710;22;87781;-68
2023/07/11 07:26:02;;;;;;;12.27;8.27;;;46.40;38.80;;;;;;6187397;22;86948;-68
2023/07/11 07:28:29;;;;;;;12.40;8.15;;;46.40;39.30;;;;;;6188050;22;87355;-68
2023/07/11 07:30:57;;;;;;;9.45;7.93;;;46.50;38.70;;;;;;6186824;22;88938;-69
2023/07/11 07:33:25;;;;;;;12.93;8.73;;;47.00;38.60;;;;;;6187559;22;88428;-68
2023/07/11 07:36:03;;;;;;;13.70;8.40;;;47.50;38.50;;;;;;6187480;22;87007;-69
2023/07/11 07:38:29;;;;;;;11.70;10.13;;;47.80;38.50;;;;;;6187299;22;87294;-69
2023/07/11 07:40:57;;;;;;;12.50;8.50;;;47.90;37.10;;;;;;6187108;22;87883;-68
2023/07/11 07:43:23;;;;;;;10.32;8.05;;;47.30;38.80;;;;;;6187177;22;87801;-68
2023/07/11 07:45:53;;;;;;;10.52;8.10;;;47.30;38.00;;;;;;6187726;22;87443;-69
2023/07/11 07:48:20;;;;;;;12.63;9.93;;;48.00;37.30;;;;;;6188136;22;86373;-69
2023/07/11 07:50:46;;;;;;;15.57;9.80;;;48.10;37.50;;;;;;6187730;22;88172;-70
2023/07/11 07:53:13;;;;;;;10.80;8.23;;;48.60;36.70;;;;;;6187282;22;88347;-67
2023/07/11 07:55:39;;;;;;;25.33;10.43;;;48.20;36.50;;;;;;6187174;22;88389;-68
2023/07/11 07:58:05;;;;;;;11.27;9.10;;;48.00;35.90;;;;;;6188387;22;87306;-69
2023/07/11 08:00:31;;;;;;;14.32;8.73;;;47.70;36.20;;;;;;6188067;22;87554;-69
2023/07/11 08:02:57;;;;;;;13.63;8.63;;;48.10;36.20;;;;;;6189098;22;87700;-68
2023/07/11 08:05:23;;;;;;;15.38;7.65;;;48.70;35.20;;;;;;6188769;22;87369;-69
2023/07/11 08:07:49;;;;;;;15.25;8.82;;;49.10;34.80;;;;;;6189080;22;86979;-66
2023/07/11 08:10:16;;;;;;;13.10;8.00;;;49.30;33.70;;;;;;6188871;22;88170;-66
2023/07/11 08:12:42;;;;;;;17.70;10.00;;;49.40;34.50;;;;;;6189047;22;87698;-70
2023/07/11 08:15:09;;;;;;;12.98;8.95;;;49.40;34.70;;;;;;6187716;22;86887;-68
2023/07/11 08:17:35;;;;;;;18.70;8.48;;;49.80;34.40;;;;;;6188714;22;87365;-68
2023/07/11 08:20:01;;;;;;;12.02;9.30;;;49.80;33.80;;;;;;6187736;22;88908;-68
2023/07/11 08:22:26;;;;;;;14.70;8.63;;;49.70;33.40;;;;;;6188614;22;88636;-68
2023/07/11 08:24:52;;;;;;;14.85;11.25;;;48.90;32.90;;;;;;6189239;22;87049;-70
2023/07/11 08:27:18;;;;;;;15.02;9.73;;;49.00;33.90;;;;;;6188129;22;87329;-68
2023/07/11 08:29:45;;;;;;;15.77;9.85;;;49.20;33.10;;;;;;6188900;22;88009;-68
2023/07/11 08:32:14;;;;;;;13.77;10.02;;;48.90;33.90;;;;;;6188745;22;88107;-68
2023/07/11 08:34:41;;;;;;;15.23;9.07;;;48.90;33.50;;;;;;6188593;22;86971;-68
2023/07/11 08:37:07;;;;;;;13.20;9.10;;;49.10;34.00;;;;;;6190299;22;86794;-69
2023/07/11 08:39:33;;;;;;;17.80;9.95;;;49.40;34.70;;;;;;6189088;22;87657;-69
2023/07/11 08:42:06;;;;;;;15.13;10.50;;;49.70;32.90;;;;;;6188593;22;87175;-69
2023/07/11 08:44:45;;;;;;;13.82;8.88;;;49.30;33.50;;;;;;6186747;22;88260;-68
2023/07/11 08:47:30;;;;;;;11.27;9.30;;;49.20;33.40;;;;;;6185699;22;87548;-68
2023/07/11 08:50:22;;;;;;;12.60;9.57;;;49.80;33.10;;;;;;6185864;22;87898;-69
2023/07/11 08:52:59;;;;;;;12.35;8.88;;;50.30;33.10;;;;;;6187012;22;87549;-68
2023/07/11 08:55:30;;;;;;;10.95;9.75;;;50.90;35.40;;;;;;6187515;22;87231;-69
2023/07/11 08:58:14;;;;;;;15.30;11.20;;;50.70;36.00;;;;;;6188455;22;87360;-68
2023/07/11 09:00:43;;;;;;;11.60;9.75;;;50.30;35.90;;;;;;6185517;22;87994;-67
2023/07/11 09:03:26;;;;;;;17.45;10.48;;;49.90;36.40;;;;;;6188487;22;87921;-70
2023/07/11 09:05:59;;;;;;;12.35;10.13;;;49.80;36.10;;;;;;6185613;22;87388;-69
2023/07/11 09:08:26;;;;;;;12.35;9.40;;;50.10;36.90;;;;;;6186173;22;87572;-69
2023/07/11 09:11:18;;;;;;;11.10;9.90;;;50.10;36.20;;;;;;6183534;22;89830;-69
2023/07/11 09:14:07;;;;;;;14.57;11.25;;;49.90;35.30;;;;;;6184331;22;88367;-71
2023/07/11 09:16:46;;;;;;;11.07;9.73;;;50.10;35.00;;;;;;6184139;22;87311;-68
2023/07/11 09:19:23;;;;;;;10.95;9.80;;;49.30;35.30;;;;;;6188637;22;87303;-69
2023/07/11 09:21:56;;;;;;;10.07;9.07;;;49.00;35.70;;;;;;6186004;22;88035;-69
2023/07/11 09:25:00;;;;;;;15.52;14.07;;;49.60;35.70;;;;;;6186582;22;87378;-68
2023/07/11 09:27:29;;;;;;;11.63;9.73;;;49.80;35.50;;;;;;6185561;22;86967;-68
2023/07/11 09:29:56;;;;;;;12.43;10.80;;;49.50;35.40;;;;;;6188648;22;86602;-70
2023/07/11 09:32:31;;;;;;;11.60;8.88;;;49.60;36.40;;;;;;6186497;22;88929;-68
2023/07/11 09:35:00;;;;;;;13.25;10.60;;;49.80;35.40;;;;;;6187936;22;90551;-68
2023/07/11 09:37:45;;;;;;;12.23;10.05;;;49.90;36.40;;;;;;6185924;22;88087;-69
2023/07/11 09:40:19;;;;;;;13.20;9.68;;;49.80;36.30;;;;;;6186831;22;87156;-67
2023/07/11 09:42:50;;;;;;;12.43;10.50;;;50.20;35.90;;;;;;6186540;22;88092;-69
2023/07/11 09:45:20;;;;;;;16.13;10.23;;;50.40;35.60;;;;;;6185120;22;87314;-68
2023/07/11 09:47:58;;;;;;;12.13;9.23;;;50.20;35.50;;;;;;6184651;22;87488;-68
2023/07/11 09:50:45;;;;;;;12.60;10.27;;;50.30;35.80;;;;;;6185899;22;87386;-67
2023/07/11 09:53:15;;;;;;;;;;;50.60;35.30;;;;;;6185887;22;88199;-67
2023/07/11 09:55:41;;;;;;;15.70;10.30;;;50.20;35.10;;;;;;6188503;22;87404;-69
2023/07/11 09:58:14;;;;;;;11.98;9.77;;;49.80;35.10;;;;;;6186943;22;87315;-69
2023/07/11 10:00:49;;;;;;;15.43;10.60;;;49.70;36.00;;;;;;6186807;22;87368;-67
2023/07/11 10:03:22;;;;;;;10.30;9.15;;;48.80;36.70;;;;;;6183754;22;88444;-67
2023/07/11 10:05:50;;;;;;;12.95;9.07;;;48.50;36.10;;;;;;6187697;22;88266;-66
2023/07/11 10:08:17;;;;;;;12.13;10.93;;;47.70;36.10;;;;;;6188019;22;87266;-67
2023/07/11 10:10:51;;;;;;;9.45;8.32;;;47.00;37.20;;;;;;6186944;22;87574;-67
2023/07/11 10:13:17;;;;;;;11.50;7.07;;;46.10;38.50;;;;;;6187377;22;88628;-67
2023/07/11 10:15:48;;;;;;;15.70;8.32;;;45.20;40.50;;;;;;6186965;22;90473;-67
2023/07/11 10:18:31;;;;;;;9.40;7.15;;;44.20;40.20;;;;;;6186243;22;87084;-69
2023/07/11 10:21:01;;;;;;;12.57;7.10;;;43.20;41.50;;;;;;6185949;22;86594;-68
2023/07/11 10:23:27;;;;;;;12.07;8.95;;;42.20;42.70;;;;;;6187205;22;88356;-67
2023/07/11 10:26:13;;;;;;;17.13;6.25;;;41.20;45.80;;;;;;6186635;22;87292;-68
2023/07/11 10:28:43;;;;;;;9.05;7.18;;;40.50;44.60;;;;;;6160917;22;88420;-66
2023/07/11 10:31:25;;;;;;;12.02;7.97;;;40.00;46.10;;;;;;6188620;22;87483;-68
2023/07/11 10:33:55;;;;;;;10.90;6.45;;;39.60;45.20;;;;;;6188221;22;87648;-66
2023/07/11 10:36:26;;;;;;;9.27;5.43;;;39.00;48.40;;;;;;6188053;22;87427;-67
2023/07/11 10:38:56;;;;;;;8.95;6.03;;;38.60;47.40;;;;;;6185794;22;87262;-68
2023/07/11 10:41:53;;;;;;;9.63;5.32;;;38.20;49.60;;;;;;6188137;22;87039;-71
2023/07/11 10:44:30;;;;;;;9.98;5.35;;;37.90;49.90;;;;;;6174056;22;88092;-68
2023/07/11 10:46:56;;;;;;;7.43;5.00;;;37.80;49.50;;;;;;6184161;22;86581;-68
2023/07/11 10:49:28;;;;;;;11.07;4.85;;;37.60;49.70;;;;;;6185499;22;87350;-67
2023/07/11 10:52:22;;;;;;;8.60;4.82;;;37.30;50.50;;;;;;6186670;22;87260;-70
2023/07/11 10:54:53;;;;;;;10.00;4.95;;;37.10;49.00;;;;;;6186305;22;89108;-64
2023/07/11 10:57:27;;;;;;;8.63;4.93;;;36.90;50.20;;;;;;6186247;22;88153;-68
2023/07/11 10:59:53;;;;;;;6.47;4.65;;;36.90;50.60;;;;;;6187541;22;87366;-69
2023/07/11 11:02:58;;;;;;;8.88;5.88;;;37.00;49.70;;;;;;6187021;22;87298;-70
2023/07/11 11:05:50;;;;;;;9.35;4.95;;;37.10;51.40;;;;;;6033813;23;88190;-68
2023/07/11 11:08:41;;;;;;;9.82;6.43;;;36.90;50.80;;;;;;6180736;22;87889;-68
2023/07/11 11:11:34;;;;;;;8.13;4.22;;;36.80;48.00;;;;;;6184996;22;87171;-68
2023/07/11 11:14:53;;;;;;;8.57;4.90;;;36.60;48.70;;;;;;6187546;22;86450;-69
2023/07/11 11:17:41;;;;;;;13.00;5.07;;;36.60;49.00;;;;;;6034020;23;88078;-69
2023/07/11 11:20:51;;;;;;;12.48;5.32;;;36.50;49.80;;;;;;6035440;23;88430;-69
2023/07/11 11:23:44;;;;;;;15.23;5.50;;;36.40;51.40;;;;;;6121102;22;88034;-69
2023/07/11 11:26:31;;;;;;;12.20;4.88;;;36.40;51.10;;;;;;6188694;22;87252;-68
2023/07/11 11:29:11;;;;;;;7.05;4.30;;;36.30;51.50;;;;;;6187853;22;87561;-68
2023/07/11 11:32:06;;;;;;;9.98;4.35;;;36.20;50.70;;;;;;6189248;22;87787;-71
2023/07/11 11:35:03;;;;;;;8.10;4.45;;;36.00;51.00;;;;;;6190649;22;87548;-71
2023/07/11 11:37:47;;;;;;;8.10;4.30;;;36.00;51.10;;;;;;6191438;22;87338;-70
2023/07/11 11:40:18;;;;;;;9.95;4.10;;;36.20;51.10;;;;;;6190867;22;87880;-67
2023/07/11 11:42:45;;;;;;;10.48;3.92;;;36.00;49.20;;;;;;6191282;22;87720;-73
2023/07/11 11:45:16;;;;;;;10.85;3.35;;;35.90;48.70;;;;;;6189051;22;87318;-69
2023/07/11 11:47:43;;;;;;;10.48;4.20;;;36.00;49.70;;;;;;6189899;22;87275;-71
2023/07/11 11:50:24;;;;;;;8.52;3.88;;;36.10;47.60;;;;;;6189350;22;89020;-68
2023/07/11 11:53:18;;;;;;;9.02;4.05;;;36.10;48.90;;;;;;6190704;22;88754;-69
2023/07/11 11:55:51;;;;;;;15.35;3.50;;;36.20;49.30;;;;;;6135569;22;87280;-69
2023/07/11 11:58:18;;;;;;;9.80;3.63;;;36.00;47.50;;;;;;6190917;22;87030;-69
2023/07/11 12:00:51;;;;;;;8.40;4.28;;;35.90;48.90;;;;;;6191178;22;88006;-70
2023/07/11 12:03:27;;;;;;;9.30;3.88;;;35.90;49.80;;;;;;6191158;22;87496;-69
2023/07/11 12:05:56;;;;;;;9.68;3.85;;;36.00;48.80;;;;;;6191259;22;87440;-69
2023/07/11 12:08:37;;;;;;;8.65;4.22;;;36.00;49.60;;;;;;6191121;22;86588;-69
2023/07/11 12:11:08;;;;;;;9.35;3.95;;;36.00;50.20;;;;;;6190522;22;88029;-70
2023/07/11 12:13:36;;;;;;;9.38;3.97;;;36.00;49.50;;;;;;6190885;22;87390;-70
2023/07/11 12:16:07;;;;;;;7.18;3.97;;;36.00;50.60;;;;;;6189944;22;88315;-69
2023/07/11 12:18:45;;;;;;;6.63;4.22;;;36.10;50.50;;;;;;6191181;22;87413;-69
2023/07/11 12:21:14;;;;;;;12.57;3.80;;;36.20;50.10;;;;;;6190108;22;87747;-69
2023/07/11 12:23:44;;;;;;;9.55;3.97;;;36.10;47.60;;;;;;6190397;22;87478;-69
2023/07/11 12:26:22;;;;;;;7.75;3.72;;;36.10;48.20;;;;;;6191058;22;87369;-68
2023/07/11 12:28:49;;;;;;;6.75;3.53;;;36.00;50.10;;;;;;6190955;22;87345;-67
2023/07/11 12:31:23;;;;;;;9.63;3.67;;;35.90;48.40;;;;;;6189923;22;88558;-70
2023/07/11 12:34:02;;;;;;;7.88;3.55;;;36.00;47.60;;;;;;6190405;22;87585;-69
2023/07/11 12:36:49;;;;;;;7.25;3.70;;;36.00;48.40;;;;;;6190526;22;87248;-69
2023/07/11 12:39:48;;;;;;;12.45;3.38;;;36.00;47.80;;;;;;6190378;22;86990;-69
2023/07/11 12:42:13;;;;;;;12.02;4.15;;;36.10;47.70;;;;;;6137456;22;88620;-69
2023/07/11 12:44:39;;;;;;;8.27;3.50;;;36.00;46.40;;;;;;6188069;22;88142;-69
2023/07/11 12:47:13;;;;;;;7.75;3.97;;;36.00;47.50;;;;;;6188837;22;87342;-69
2023/07/11 12:49:43;;;;;;;7.30;3.10;;;36.00;49.20;;;;;;6188447;22;87483;-68
2023/07/11 12:52:17;;;;;;;8.23;3.53;;;36.00;48.60;;;;;;6188301;22;88570;-68
2023/07/11 12:54:44;;;;;;;6.20;3.72;;;35.90;47.70;;;;;;6188153;22;87429;-67
2023/07/11 12:57:19;;;;;;;7.95;3.08;;;35.90;46.70;;;;;;6188722;22;87286;-69
2023/07/11 12:59:45;;;;;;;;;;;35.80;47.50;;;;;;6163536;22;86538;-67
2023/07/11 13:02:15;;;;;;;8.63;3.03;;;35.70;46.30;;;;;;6189838;22;87393;-69
2023/07/11 13:04:47;;;;;;;7.38;3.47;;;35.70;47.20;;;;;;6187869;22;88105;-68
2023/07/11 13:07:20;;;;;;;8.32;4.50;;;35.70;45.10;;;;;;6188053;22;87988;-68
2023/07/11 13:09:56;;;;;;;6.63;3.05;;;35.70;45.10;;;;;;6188702;22;87463;-71
2023/07/11 13:12:24;;;;;;;9.80;3.53;;;35.80;46.10;;;;;;6187706;22;87595;-68
2023/07/11 13:14:51;;;;;;;7.68;3.20;;;35.80;47.90;;;;;;6188382;22;87249;-69
2023/07/11 13:17:24;;;;;;;8.95;4.70;;;35.90;46.10;;;;;;6188125;22;87431;-69
2023/07/11 13:19:59;;;;;;;6.88;3.25;;;35.90;47.50;;;;;;6189080;22;87372;-68
2023/07/11 13:22:24;;;;;;;6.25;3.33;;;35.90;43.60;;;;;;6188400;22;88577;-69
2023/07/11 13:24:54;;;;;;;9.75;3.10;;;35.90;44.30;;;;;;6188320;22;88322;-68
2023/07/11 13:27:26;;;;;;;6.90;3.42;;;35.90;47.70;;;;;;6188432;22;87315;-68
2023/07/11 13:29:53;;;;;;;5.20;3.05;;;35.80;46.00;;;;;;6162252;22;86994;-68
2023/07/11 13:32:23;;;;;;;6.57;2.95;;;35.80;45.80;;;;;;6187249;22;88996;-69
2023/07/11 13:34:52;;;;;;;6.82;3.20;;;35.90;43.40;;;;;;6188724;22;87311;-68
2023/07/11 13:37:24;;;;;;;8.85;3.35;;;35.90;45.30;;;;;;6188354;22;87004;-70
2023/07/11 13:39:50;;;;;;;9.50;2.72;;;36.00;46.00;;;;;;6188958;22;87015;-69
2023/07/11 13:42:17;;;;;;;7.78;3.28;;;36.10;46.00;;;;;;6188639;22;87965;-67
2023/07/11 13:44:50;;;;;;;6.07;3.22;;;36.20;46.60;;;;;;6188574;22;88342;-71
2023/07/11 13:47:24;;;;;;;8.93;3.10;;;36.20;45.90;;;;;;6189120;22;87011;-68
2023/07/11 13:49:58;;;;;;;7.28;3.03;;;36.20;47.10;;;;;;6189090;22;86676;-70
2023/07/11 13:52:59;;;;;;;7.57;3.08;;;36.10;46.30;;;;;;6187425;22;88210;-69
2023/07/11 13:55:36;;;;;;;;;;;36.10;44.80;;;;;;6103351;22;87865;-68
2023/07/11 13:58:02;;;;;;;7.43;3.17;;;36.10;45.30;;;;;;6189735;22;88255;-70
2023/07/11 14:00:28;;;;;;;6.28;3.13;;;36.20;46.60;;;;;;6188640;22;87291;-68
2023/07/11 14:02:54;;;;;;;7.63;3.17;;;36.10;45.10;;;;;;6188683;22;87634;-70
2023/07/11 14:05:21;;;;;;;6.07;3.15;;;36.10;46.60;;;;;;6188902;22;87297;-67
2023/07/11 14:07:48;;;;;;;9.95;3.13;;;36.10;46.10;;;;;;6188602;22;87322;-69
2023/07/11 14:10:15;;;;;;;9.10;3.60;;;36.10;43.50;;;;;;6189643;22;87294;-68
2023/07/11 14:12:40;;;;;;;6.05;2.60;;;36.00;45.00;;;;;;6188920;22;87754;-69
2023/07/11 14:15:21;;;;;;;7.30;3.60;;;36.10;45.50;;;;;;6188046;22;88382;-68
2023/07/11 14:17:48;;;;;;;10.50;3.17;;;36.10;46.60;;;;;;6188882;22;87319;-68
2023/07/11 14:20:19;;;;;;;8.02;3.05;;;36.10;45.80;;;;;;6188068;22;87505;-72
2023/07/11 14:22:46;;;;;;;6.15;3.05;;;36.10;45.90;;;;;;6187825;22;88236;-69
2023/07/11 14:25:23;;;;;;;6.80;3.22;;;36.10;46.80;;;;;;6160650;22;90251;-69
2023/07/11 14:27:50;;;;;;;7.28;3.60;;;36.10;45.20;;;;;;6188581;22;87305;-70
2023/07/11 14:30:17;;;;;;;13.38;3.40;;;36.10;45.90;;;;;;6183759;22;87708;-69
2023/07/11 14:32:45;;;;;;;5.78;3.05;;;36.10;47.50;;;;;;6187105;22;88621;-68
2023/07/11 14:35:22;;;;;;;11.65;3.05;;;36.00;46.90;;;;;;6188167;22;87917;-69
2023/07/11 14:37:49;;;;;;;9.27;3.67;;;36.00;47.90;;;;;;6187349;22;87442;-67
2023/07/11 14:40:26;;;;;;;7.60;3.47;;;36.00;47.10;;;;;;6188760;22;86305;-68
2023/07/11 14:42:52;;;;;;;8.57;3.50;;;36.00;47.10;;;;;;6187584;22;87468;-69
2023/07/11 14:45:24;;;;;;;7.78;3.10;;;35.90;47.10;;;;;;6186506;22;87565;-68
2023/07/11 14:47:51;;;;;;;11.43;3.88;;;36.10;46.30;;;;;;6186243;22;88483;-68
2023/07/11 14:50:20;;;;;;;7.38;3.67;;;35.90;46.20;;;;;;6187213;22;86971;-69
2023/07/11 14:52:46;;;;;;;;;;;36.00;45.50;;;;;;6188505;22;87804;-68
2023/07/11 14:55:14;;;;;;;7.97;3.50;;;36.00;47.90;;;;;;6162701;22;89822;-69
2023/07/11 14:57:42;;;;;;;9.38;3.83;;;36.10;48.80;;;;;;6188049;22;87577;-69
2023/07/11 15:00:20;;;;;;;7.80;3.80;;;36.20;46.90;;;;;;6187711;22;87720;-70
2023/07/11 15:02:48;;;;;;;7.85;3.85;;;36.20;47.70;;;;;;6186487;22;87314;-69
2023/07/11 15:05:18;;;;;;;6.47;3.15;;;36.10;47.40;;;;;;6186856;22;88130;-69
2023/07/11 15:07:47;;;;;;;9.38;3.63;;;36.00;47.90;;;;;;6187482;22;87376;-69
2023/07/11 15:10:16;;;;;;;9.10;5.05;;;35.90;49.10;;;;;;6187401;22;87088;-70
2023/07/11 15:12:43;;;;;;;9.68;3.80;;;35.90;47.80;;;;;;6187080;22;88792;-69
2023/07/11 15:15:14;;;;;;;5.80;3.83;;;35.70;49.00;;;;;;6186475;22;88095;-69
2023/07/11 15:17:40;;;;;;;11.15;3.65;;;35.80;48.70;;;;;;6187547;22;87526;-70
2023/07/11 15:20:10;;;;;;;9.60;3.30;;;35.80;48.50;;;;;;6187590;22;87037;-69
2023/07/11 15:22:36;;;;;;;9.82;4.80;;;35.90;48.20;;;;;;6187290;22;89545;-69
2023/07/11 15:25:05;;;;;;;7.85;3.40;;;35.90;48.40;;;;;;6185795;22;87583;-70
2023/07/11 15:27:31;;;;;;;9.80;3.55;;;36.00;48.30;;;;;;6187062;22;87327;-70
2023/07/11 15:29:57;;;;;;;9.15;3.55;;;36.00;49.10;;;;;;6187890;22;86250;-69
2023/07/11 15:32:24;;;;;;;10.35;4.05;;;36.00;48.80;;;;;;6185820;22;88763;-72
2023/07/11 15:34:50;;;;;;;9.80;3.40;;;35.90;47.80;;;;;;6186678;22;87502;-69
2023/07/11 15:37:16;;;;;;;6.93;3.63;;;35.80;49.10;;;;;;6185329;22;88237;-69
2023/07/11 15:39:45;;;;;;;6.72;4.28;;;35.80;49.30;;;;;;6187778;22;87457;-69
2023/07/11 15:42:23;;;;;;;6.10;4.25;;;35.70;49.80;;;;;;6187634;22;87866;-67
2023/07/11 15:44:54;;;;;;;8.50;3.53;;;35.70;49.60;;;;;;6187039;22;87870;-68
2023/07/11 15:47:20;;;;;;;7.07;3.55;;;35.70;50.10;;;;;;6187346;22;87668;-71
2023/07/11 15:49:46;;;;;;;11.10;5.00;;;35.70;50.10;;;;;;6187412;22;87573;-69
2023/07/11 15:52:12;;;;;;;6.72;3.35;;;35.60;50.40;;;;;;6186549;22;87884;-68
2023/07/11 15:54:38;;;;;;;6.35;3.75;;;35.70;49.90;;;;;;6187233;22;88162;-69
2023/07/11 15:57:20;;;;;;;8.70;3.90;;;35.70;49.50;;;;;;6187154;22;87524;-69
2023/07/11 15:59:46;;;;;;;6.97;3.88;;;35.70;48.60;;;;;;6186842;22;87541;-68
2023/07/11 16:02:22;;;;;;;9.02;3.35;;;35.80;49.20;;;;;;6183888;22;88230;-70
2023/07/11 16:04:48;;;;;;;9.07;4.13;;;35.80;48.90;;;;;;6186847;22;87803;-68
2023/07/11 16:07:17;;;;;;;10.93;4.43;;;35.80;46.40;;;;;;6187687;22;87533;-70
2023/07/11 16:09:43;;;;;;;9.93;3.78;;;35.80;45.40;;;;;;6187772;22;87280;-69
2023/07/11 16:12:12;;;;;;;6.95;3.25;;;35.70;46.20;;;;;;6187193;22;88061;-71
2023/07/11 16:14:40;;;;;;;9.05;4.30;;;35.70;46.30;;;;;;6186437;22;87790;-69
2023/07/11 16:17:16;;;;;;;8.88;3.63;;;35.60;44.40;;;;;;6186885;22;87227;-68